sensor_id;sensor_type;location;lat;lon;timestamp;P1;durP1;ratioP1;P2;durP2;ratioP2
46551;SDS011;32278;51.810;4.712;2023-12-20T00:00:43;20.67;;;12.52;;
46551;SDS011;32278;51.810;4.712;2023-12-20T00:03:08;27.33;;;12.70;;
46551;SDS011;32278;51.810;4.712;2023-12-20T00:05:34;34.90;;;13.38;;
46551;SDS011;32278;51.810;4.712;2023-12-20T00:08:03;22.23;;;13.20;;
46551;SDS011;32278;51.810;4.712;2023-12-20T00:10:30;21.60;;;12.65;;
46551;SDS011;32278;51.810;4.712;2023-12-20T00:12:56;25.63;;;12.75;;
46551;SDS011;32278;51.810;4.712;2023-12-20T00:15:22;21.40;;;12.70;;
46551;SDS011;32278;51.810;4.712;2023-12-20T00:17:47;22.65;;;13.35;;
46551;SDS011;32278;51.810;4.712;2023-12-20T00:20:13;23.38;;;13.23;;
46551;SDS011;32278;51.810;4.712;2023-12-20T00:22:39;31.25;;;14.48;;
46551;SDS011;32278;51.810;4.712;2023-12-20T00:25:05;23.92;;;12.48;;
46551;SDS011;32278;51.810;4.712;2023-12-20T00:27:32;25.40;;;12.52;;
46551;SDS011;32278;51.810;4.712;2023-12-20T00:29:58;26.02;;;12.35;;
46551;SDS011;32278;51.810;4.712;2023-12-20T00:32:23;24.63;;;13.15;;
46551;SDS011;32278;51.810;4.712;2023-12-20T00:34:49;24.67;;;13.43;;
46551;SDS011;32278;51.810;4.712;2023-12-20T00:37:15;27.83;;;14.23;;
46551;SDS011;32278;51.810;4.712;2023-12-20T00:39:41;30.80;;;13.27;;
46551;SDS011;32278;51.810;4.712;2023-12-20T00:42:07;24.52;;;12.98;;
46551;SDS011;32278;51.810;4.712;2023-12-20T00:44:33;21.88;;;13.40;;
46551;SDS011;32278;51.810;4.712;2023-12-20T00:46:59;24.30;;;13.00;;
46551;SDS011;32278;51.810;4.712;2023-12-20T00:49:26;19.13;;;11.55;;
46551;SDS011;32278;51.810;4.712;2023-12-20T00:51:52;29.60;;;11.95;;
46551;SDS011;32278;51.810;4.712;2023-12-20T00:54:18;22.48;;;11.30;;
46551;SDS011;32278;51.810;4.712;2023-12-20T00:56:44;28.17;;;12.43;;
46551;SDS011;32278;51.810;4.712;2023-12-20T00:59:10;23.92;;;10.75;;
46551;SDS011;32278;51.810;4.712;2023-12-20T01:01:36;27.23;;;11.07;;
46551;SDS011;32278;51.810;4.712;2023-12-20T01:04:02;31.10;;;11.02;;
46551;SDS011;32278;51.810;4.712;2023-12-20T01:06:28;23.00;;;9.68;;
46551;SDS011;32278;51.810;4.712;2023-12-20T01:08:54;22.73;;;11.07;;
46551;SDS011;32278;51.810;4.712;2023-12-20T01:11:20;27.70;;;10.70;;
46551;SDS011;32278;51.810;4.712;2023-12-20T01:13:47;32.92;;;11.00;;
46551;SDS011;32278;51.810;4.712;2023-12-20T01:16:13;33.40;;;11.45;;
46551;SDS011;32278;51.810;4.712;2023-12-20T01:18:39;31.65;;;11.18;;
46551;SDS011;32278;51.810;4.712;2023-12-20T01:21:05;32.40;;;11.35;;
46551;SDS011;32278;51.810;4.712;2023-12-20T01:23:31;24.02;;;10.73;;
46551;SDS011;32278;51.810;4.712;2023-12-20T01:25:58;18.90;;;10.20;;
46551;SDS011;32278;51.810;4.712;2023-12-20T01:28:27;31.63;;;10.27;;
46551;SDS011;32278;51.810;4.712;2023-12-20T01:30:54;20.10;;;9.70;;
46551;SDS011;32278;51.810;4.712;2023-12-20T01:33:20;32.70;;;10.63;;
46551;SDS011;32278;51.810;4.712;2023-12-20T01:35:46;25.30;;;10.30;;
46551;SDS011;32278;51.810;4.712;2023-12-20T01:38:12;32.78;;;10.80;;
46551;SDS011;32278;51.810;4.712;2023-12-20T01:40:38;31.15;;;11.68;;
46551;SDS011;32278;51.810;4.712;2023-12-20T01:43:08;28.55;;;10.70;;
46551;SDS011;32278;51.810;4.712;2023-12-20T01:45:34;27.77;;;10.00;;
46551;SDS011;32278;51.810;4.712;2023-12-20T01:48:01;29.98;;;9.50;;
46551;SDS011;32278;51.810;4.712;2023-12-20T01:50:28;28.13;;;10.10;;
46551;SDS011;32278;51.810;4.712;2023-12-20T01:52:55;27.70;;;10.40;;
46551;SDS011;32278;51.810;4.712;2023-12-20T01:55:22;23.98;;;10.13;;
46551;SDS011;32278;51.810;4.712;2023-12-20T01:57:49;28.45;;;9.82;;
46551;SDS011;32278;51.810;4.712;2023-12-20T02:00:15;29.70;;;9.55;;
46551;SDS011;32278;51.810;4.712;2023-12-20T02:02:41;28.25;;;10.82;;
46551;SDS011;32278;51.810;4.712;2023-12-20T02:05:07;24.38;;;8.75;;
46551;SDS011;32278;51.810;4.712;2023-12-20T02:07:34;29.77;;;8.95;;
46551;SDS011;32278;51.810;4.712;2023-12-20T02:10:00;30.48;;;10.50;;
46551;SDS011;32278;51.810;4.712;2023-12-20T02:12:26;31.85;;;8.45;;
46551;SDS011;32278;51.810;4.712;2023-12-20T02:14:52;23.38;;;8.00;;
46551;SDS011;32278;51.810;4.712;2023-12-20T02:17:19;24.00;;;8.60;;
46551;SDS011;32278;51.810;4.712;2023-12-20T02:19:45;31.92;;;9.05;;
46551;SDS011;32278;51.810;4.712;2023-12-20T02:22:11;39.97;;;8.73;;
46551;SDS011;32278;51.810;4.712;2023-12-20T02:24:38;25.65;;;9.00;;
46551;SDS011;32278;51.810;4.712;2023-12-20T02:27:05;23.27;;;8.57;;
46551;SDS011;32278;51.810;4.712;2023-12-20T02:29:32;28.92;;;8.98;;
46551;SDS011;32278;51.810;4.712;2023-12-20T02:31:58;34.42;;;9.90;;
46551;SDS011;32278;51.810;4.712;2023-12-20T02:34:24;27.23;;;7.82;;
46551;SDS011;32278;51.810;4.712;2023-12-20T02:36:50;30.65;;;9.50;;
46551;SDS011;32278;51.810;4.712;2023-12-20T02:39:16;31.23;;;8.73;;
46551;SDS011;32278;51.810;4.712;2023-12-20T02:41:43;29.17;;;9.52;;
46551;SDS011;32278;51.810;4.712;2023-12-20T02:44:09;27.90;;;8.63;;
46551;SDS011;32278;51.810;4.712;2023-12-20T02:46:35;28.63;;;8.85;;
46551;SDS011;32278;51.810;4.712;2023-12-20T02:49:01;36.03;;;8.93;;
46551;SDS011;32278;51.810;4.712;2023-12-20T02:51:26;27.42;;;8.05;;
46551;SDS011;32278;51.810;4.712;2023-12-20T02:53:52;27.10;;;7.57;;
46551;SDS011;32278;51.810;4.712;2023-12-20T02:56:19;33.58;;;8.75;;
46551;SDS011;32278;51.810;4.712;2023-12-20T02:58:44;26.08;;;7.35;;
46551;SDS011;32278;51.810;4.712;2023-12-20T03:01:11;30.90;;;7.70;;
46551;SDS011;32278;51.810;4.712;2023-12-20T03:03:36;29.15;;;7.60;;
46551;SDS011;32278;51.810;4.712;2023-12-20T03:06:02;27.05;;;8.38;;
46551;SDS011;32278;51.810;4.712;2023-12-20T03:08:28;34.22;;;8.55;;
46551;SDS011;32278;51.810;4.712;2023-12-20T03:10:54;32.75;;;8.98;;
46551;SDS011;32278;51.810;4.712;2023-12-20T03:13:20;24.15;;;8.43;;
46551;SDS011;32278;51.810;4.712;2023-12-20T03:15:46;34.80;;;7.65;;
46551;SDS011;32278;51.810;4.712;2023-12-20T03:18:14;28.85;;;8.20;;
46551;SDS011;32278;51.810;4.712;2023-12-20T03:20:40;29.90;;;7.72;;
46551;SDS011;32278;51.810;4.712;2023-12-20T03:23:06;25.70;;;8.65;;
46551;SDS011;32278;51.810;4.712;2023-12-20T03:25:32;21.35;;;7.93;;
46551;SDS011;32278;51.810;4.712;2023-12-20T03:27:58;27.35;;;9.57;;
46551;SDS011;32278;51.810;4.712;2023-12-20T03:30:24;27.63;;;8.45;;
46551;SDS011;32278;51.810;4.712;2023-12-20T03:32:50;27.75;;;8.60;;
46551;SDS011;32278;51.810;4.712;2023-12-20T03:35:16;34.63;;;9.27;;
46551;SDS011;32278;51.810;4.712;2023-12-20T03:37:44;34.45;;;9.13;;
46551;SDS011;32278;51.810;4.712;2023-12-20T03:40:10;32.38;;;8.82;;
46551;SDS011;32278;51.810;4.712;2023-12-20T03:42:36;32.58;;;8.88;;
46551;SDS011;32278;51.810;4.712;2023-12-20T03:45:02;30.88;;;8.40;;
46551;SDS011;32278;51.810;4.712;2023-12-20T03:47:28;30.15;;;7.65;;
46551;SDS011;32278;51.810;4.712;2023-12-20T03:49:55;22.20;;;7.82;;
46551;SDS011;32278;51.810;4.712;2023-12-20T03:52:21;24.55;;;7.95;;
46551;SDS011;32278;51.810;4.712;2023-12-20T03:54:47;28.15;;;8.85;;
46551;SDS011;32278;51.810;4.712;2023-12-20T03:57:13;29.00;;;8.45;;
46551;SDS011;32278;51.810;4.712;2023-12-20T03:59:39;33.63;;;7.72;;
46551;SDS011;32278;51.810;4.712;2023-12-20T04:02:05;28.65;;;8.27;;
46551;SDS011;32278;51.810;4.712;2023-12-20T04:04:31;26.38;;;7.85;;
46551;SDS011;32278;51.810;4.712;2023-12-20T04:06:57;23.85;;;8.10;;
46551;SDS011;32278;51.810;4.712;2023-12-20T04:09:23;29.40;;;7.78;;
46551;SDS011;32278;51.810;4.712;2023-12-20T04:11:49;32.08;;;8.27;;
46551;SDS011;32278;51.810;4.712;2023-12-20T04:14:16;27.40;;;8.15;;
46551;SDS011;32278;51.810;4.712;2023-12-20T04:16:42;28.02;;;7.63;;
46551;SDS011;32278;51.810;4.712;2023-12-20T04:19:08;30.80;;;8.77;;
46551;SDS011;32278;51.810;4.712;2023-12-20T04:21:34;29.90;;;9.90;;
46551;SDS011;32278;51.810;4.712;2023-12-20T04:23:59;34.92;;;9.57;;
46551;SDS011;32278;51.810;4.712;2023-12-20T04:26:25;35.50;;;8.70;;
46551;SDS011;32278;51.810;4.712;2023-12-20T04:28:51;28.73;;;9.25;;
46551;SDS011;32278;51.810;4.712;2023-12-20T04:31:17;26.80;;;7.88;;
46551;SDS011;32278;51.810;4.712;2023-12-20T04:33:43;36.65;;;9.43;;
46551;SDS011;32278;51.810;4.712;2023-12-20T04:36:09;31.38;;;8.65;;
46551;SDS011;32278;51.810;4.712;2023-12-20T04:38:35;40.90;;;10.50;;
46551;SDS011;32278;51.810;4.712;2023-12-20T04:41:01;31.35;;;10.40;;
46551;SDS011;32278;51.810;4.712;2023-12-20T04:43:27;27.70;;;8.30;;
46551;SDS011;32278;51.810;4.712;2023-12-20T04:45:54;28.50;;;8.20;;
46551;SDS011;32278;51.810;4.712;2023-12-20T04:48:22;29.05;;;8.63;;
46551;SDS011;32278;51.810;4.712;2023-12-20T04:50:48;26.27;;;7.45;;
46551;SDS011;32278;51.810;4.712;2023-12-20T04:53:13;31.23;;;8.45;;
46551;SDS011;32278;51.810;4.712;2023-12-20T04:55:39;22.75;;;8.48;;
46551;SDS011;32278;51.810;4.712;2023-12-20T04:58:05;33.65;;;10.20;;
46551;SDS011;32278;51.810;4.712;2023-12-20T05:00:31;33.50;;;9.52;;
46551;SDS011;32278;51.810;4.712;2023-12-20T05:02:57;42.15;;;10.10;;
46551;SDS011;32278;51.810;4.712;2023-12-20T05:05:25;37.55;;;9.32;;
46551;SDS011;32278;51.810;4.712;2023-12-20T05:07:50;32.22;;;9.80;;
46551;SDS011;32278;51.810;4.712;2023-12-20T05:10:17;30.38;;;8.65;;
46551;SDS011;32278;51.810;4.712;2023-12-20T05:12:43;41.15;;;10.13;;
46551;SDS011;32278;51.810;4.712;2023-12-20T05:15:09;30.08;;;9.77;;
46551;SDS011;32278;51.810;4.712;2023-12-20T05:17:35;32.40;;;9.75;;
46551;SDS011;32278;51.810;4.712;2023-12-20T05:20:01;27.80;;;8.52;;
46551;SDS011;32278;51.810;4.712;2023-12-20T05:22:27;28.25;;;9.40;;
46551;SDS011;32278;51.810;4.712;2023-12-20T05:24:53;35.80;;;9.73;;
46551;SDS011;32278;51.810;4.712;2023-12-20T05:27:19;24.02;;;8.25;;
46551;SDS011;32278;51.810;4.712;2023-12-20T05:29:47;26.60;;;9.63;;
46551;SDS011;32278;51.810;4.712;2023-12-20T05:32:13;29.95;;;8.98;;
46551;SDS011;32278;51.810;4.712;2023-12-20T05:34:39;32.33;;;8.65;;
46551;SDS011;32278;51.810;4.712;2023-12-20T05:37:05;29.77;;;9.48;;
46551;SDS011;32278;51.810;4.712;2023-12-20T05:39:31;32.78;;;8.25;;
46551;SDS011;32278;51.810;4.712;2023-12-20T05:41:57;26.52;;;7.88;;
46551;SDS011;32278;51.810;4.712;2023-12-20T05:44:23;28.27;;;7.60;;
46551;SDS011;32278;51.810;4.712;2023-12-20T05:46:49;27.88;;;7.72;;
46551;SDS011;32278;51.810;4.712;2023-12-20T05:49:15;29.48;;;8.45;;
46551;SDS011;32278;51.810;4.712;2023-12-20T05:51:41;32.78;;;8.30;;
46551;SDS011;32278;51.810;4.712;2023-12-20T05:54:07;32.92;;;7.60;;
46551;SDS011;32278;51.810;4.712;2023-12-20T05:56:33;31.17;;;8.55;;
46551;SDS011;32278;51.810;4.712;2023-12-20T05:59:01;27.75;;;8.27;;
46551;SDS011;32278;51.810;4.712;2023-12-20T06:01:26;36.45;;;9.07;;
46551;SDS011;32278;51.810;4.712;2023-12-20T06:03:52;34.17;;;8.52;;
46551;SDS011;32278;51.810;4.712;2023-12-20T06:06:18;29.17;;;7.88;;
46551;SDS011;32278;51.810;4.712;2023-12-20T06:08:44;34.33;;;9.07;;
46551;SDS011;32278;51.810;4.712;2023-12-20T06:11:10;27.45;;;7.65;;
46551;SDS011;32278;51.810;4.712;2023-12-20T06:13:36;37.13;;;8.77;;
46551;SDS011;32278;51.810;4.712;2023-12-20T06:16:03;21.98;;;8.77;;
46551;SDS011;32278;51.810;4.712;2023-12-20T06:18:29;36.63;;;9.10;;
46551;SDS011;32278;51.810;4.712;2023-12-20T06:20:55;36.78;;;8.77;;
46551;SDS011;32278;51.810;4.712;2023-12-20T06:23:21;40.30;;;9.57;;
46551;SDS011;32278;51.810;4.712;2023-12-20T06:25:47;34.50;;;8.35;;
46551;SDS011;32278;51.810;4.712;2023-12-20T06:28:13;37.03;;;9.30;;
46551;SDS011;32278;51.810;4.712;2023-12-20T06:30:39;35.70;;;9.05;;
46551;SDS011;32278;51.810;4.712;2023-12-20T06:33:05;24.63;;;8.13;;
46551;SDS011;32278;51.810;4.712;2023-12-20T06:35:31;33.78;;;8.63;;
46551;SDS011;32278;51.810;4.712;2023-12-20T06:37:58;26.80;;;8.77;;
46551;SDS011;32278;51.810;4.712;2023-12-20T06:40:24;26.15;;;8.10;;
46551;SDS011;32278;51.810;4.712;2023-12-20T06:42:50;27.90;;;8.88;;
46551;SDS011;32278;51.810;4.712;2023-12-20T06:45:16;30.33;;;8.38;;
46551;SDS011;32278;51.810;4.712;2023-12-20T06:47:42;27.65;;;8.48;;
46551;SDS011;32278;51.810;4.712;2023-12-20T06:50:08;38.78;;;8.60;;
46551;SDS011;32278;51.810;4.712;2023-12-20T06:52:34;33.35;;;8.35;;
46551;SDS011;32278;51.810;4.712;2023-12-20T06:55:00;25.15;;;8.43;;
46551;SDS011;32278;51.810;4.712;2023-12-20T06:57:26;31.73;;;7.35;;
46551;SDS011;32278;51.810;4.712;2023-12-20T06:59:52;38.08;;;8.20;;
46551;SDS011;32278;51.810;4.712;2023-12-20T07:02:18;31.52;;;9.50;;
46551;SDS011;32278;51.810;4.712;2023-12-20T07:04:45;30.50;;;8.73;;
46551;SDS011;32278;51.810;4.712;2023-12-20T07:07:11;36.70;;;8.95;;
46551;SDS011;32278;51.810;4.712;2023-12-20T07:09:37;30.60;;;8.85;;
46551;SDS011;32278;51.810;4.712;2023-12-20T07:12:04;34.53;;;8.73;;
46551;SDS011;32278;51.810;4.712;2023-12-20T07:14:30;32.55;;;9.30;;
46551;SDS011;32278;51.810;4.712;2023-12-20T07:16:56;39.13;;;9.43;;
46551;SDS011;32278;51.810;4.712;2023-12-20T07:19:22;40.13;;;9.10;;
46551;SDS011;32278;51.810;4.712;2023-12-20T07:21:48;32.22;;;8.13;;
46551;SDS011;32278;51.810;4.712;2023-12-20T07:24:14;33.75;;;8.48;;
46551;SDS011;32278;51.810;4.712;2023-12-20T07:26:39;23.58;;;8.23;;
46551;SDS011;32278;51.810;4.712;2023-12-20T07:29:05;30.98;;;9.27;;
46551;SDS011;32278;51.810;4.712;2023-12-20T07:31:31;33.05;;;9.23;;
46551;SDS011;32278;51.810;4.712;2023-12-20T07:33:58;35.72;;;9.18;;
46551;SDS011;32278;51.810;4.712;2023-12-20T07:36:24;37.55;;;9.00;;
46551;SDS011;32278;51.810;4.712;2023-12-20T07:38:50;34.17;;;8.00;;
46551;SDS011;32278;51.810;4.712;2023-12-20T07:41:16;39.72;;;7.88;;
46551;SDS011;32278;51.810;4.712;2023-12-20T07:43:42;29.77;;;8.23;;
46551;SDS011;32278;51.810;4.712;2023-12-20T07:46:08;39.60;;;8.48;;
46551;SDS011;32278;51.810;4.712;2023-12-20T07:48:34;28.10;;;7.28;;
46551;SDS011;32278;51.810;4.712;2023-12-20T07:51:01;34.88;;;7.68;;
46551;SDS011;32278;51.810;4.712;2023-12-20T07:53:27;27.92;;;7.03;;
46551;SDS011;32278;51.810;4.712;2023-12-20T07:55:53;35.08;;;7.28;;
46551;SDS011;32278;51.810;4.712;2023-12-20T07:58:19;32.08;;;8.70;;
46551;SDS011;32278;51.810;4.712;2023-12-20T08:00:45;38.28;;;8.52;;
46551;SDS011;32278;51.810;4.712;2023-12-20T08:03:10;26.33;;;7.57;;
46551;SDS011;32278;51.810;4.712;2023-12-20T08:05:37;27.60;;;6.80;;
46551;SDS011;32278;51.810;4.712;2023-12-20T08:08:05;33.35;;;7.75;;
46551;SDS011;32278;51.810;4.712;2023-12-20T08:10:31;34.97;;;8.13;;
46551;SDS011;32278;51.810;4.712;2023-12-20T08:12:57;40.38;;;8.50;;
46551;SDS011;32278;51.810;4.712;2023-12-20T08:15:23;40.30;;;8.13;;
46551;SDS011;32278;51.810;4.712;2023-12-20T08:17:49;36.13;;;7.95;;
46551;SDS011;32278;51.810;4.712;2023-12-20T08:20:18;32.75;;;7.35;;
46551;SDS011;32278;51.810;4.712;2023-12-20T08:22:44;25.35;;;7.22;;
46551;SDS011;32278;51.810;4.712;2023-12-20T08:25:10;33.53;;;7.40;;
46551;SDS011;32278;51.810;4.712;2023-12-20T08:27:39;31.27;;;9.38;;
46551;SDS011;32278;51.810;4.712;2023-12-20T08:30:06;36.72;;;7.90;;
46551;SDS011;32278;51.810;4.712;2023-12-20T08:32:33;41.38;;;8.68;;
46551;SDS011;32278;51.810;4.712;2023-12-20T08:34:59;34.30;;;7.72;;
46551;SDS011;32278;51.810;4.712;2023-12-20T08:37:25;39.92;;;8.75;;
46551;SDS011;32278;51.810;4.712;2023-12-20T08:39:51;33.97;;;7.57;;
46551;SDS011;32278;51.810;4.712;2023-12-20T08:42:17;36.03;;;8.32;;
46551;SDS011;32278;51.810;4.712;2023-12-20T08:44:43;35.13;;;9.13;;
46551;SDS011;32278;51.810;4.712;2023-12-20T08:47:09;26.80;;;6.45;;
46551;SDS011;32278;51.810;4.712;2023-12-20T08:49:38;27.98;;;7.38;;
46551;SDS011;32278;51.810;4.712;2023-12-20T08:52:04;32.88;;;9.23;;
46551;SDS011;32278;51.810;4.712;2023-12-20T08:54:30;30.10;;;8.73;;
46551;SDS011;32278;51.810;4.712;2023-12-20T08:56:56;33.63;;;9.00;;
46551;SDS011;32278;51.810;4.712;2023-12-20T08:59:22;39.58;;;8.45;;
46551;SDS011;32278;51.810;4.712;2023-12-20T09:01:48;36.50;;;7.90;;
46551;SDS011;32278;51.810;4.712;2023-12-20T09:04:19;43.65;;;10.98;;
46551;SDS011;32278;51.810;4.712;2023-12-20T09:06:45;38.95;;;8.57;;
46551;SDS011;32278;51.810;4.712;2023-12-20T09:09:11;34.35;;;8.20;;
46551;SDS011;32278;51.810;4.712;2023-12-20T09:11:38;33.22;;;8.63;;
46551;SDS011;32278;51.810;4.712;2023-12-20T09:14:04;44.67;;;8.77;;
46551;SDS011;32278;51.810;4.712;2023-12-20T09:16:30;30.50;;;7.60;;
46551;SDS011;32278;51.810;4.712;2023-12-20T09:18:56;31.20;;;7.97;;
46551;SDS011;32278;51.810;4.712;2023-12-20T09:21:23;34.95;;;8.65;;
46551;SDS011;32278;51.810;4.712;2023-12-20T09:23:49;31.00;;;10.02;;
46551;SDS011;32278;51.810;4.712;2023-12-20T09:26:15;36.45;;;8.20;;
46551;SDS011;32278;51.810;4.712;2023-12-20T09:28:41;34.80;;;7.38;;
46551;SDS011;32278;51.810;4.712;2023-12-20T09:31:07;34.63;;;9.75;;
46551;SDS011;32278;51.810;4.712;2023-12-20T09:33:33;34.53;;;8.02;;
46551;SDS011;32278;51.810;4.712;2023-12-20T09:35:59;30.45;;;7.93;;
46551;SDS011;32278;51.810;4.712;2023-12-20T09:38:25;31.70;;;8.45;;
46551;SDS011;32278;51.810;4.712;2023-12-20T09:40:51;33.85;;;7.95;;
46551;SDS011;32278;51.810;4.712;2023-12-20T09:43:18;30.58;;;7.22;;
46551;SDS011;32278;51.810;4.712;2023-12-20T09:45:47;33.47;;;7.53;;
46551;SDS011;32278;51.810;4.712;2023-12-20T09:48:14;29.48;;;6.47;;
46551;SDS011;32278;51.810;4.712;2023-12-20T09:50:44;34.80;;;7.35;;
46551;SDS011;32278;51.810;4.712;2023-12-20T09:53:10;26.20;;;6.80;;
46551;SDS011;32278;51.810;4.712;2023-12-20T09:55:37;33.45;;;6.82;;
46551;SDS011;32278;51.810;4.712;2023-12-20T09:58:03;34.75;;;6.68;;
46551;SDS011;32278;51.810;4.712;2023-12-20T10:00:30;32.20;;;6.90;;
46551;SDS011;32278;51.810;4.712;2023-12-20T10:02:57;39.35;;;7.40;;
46551;SDS011;32278;51.810;4.712;2023-12-20T10:05:27;28.45;;;6.22;;
46551;SDS011;32278;51.810;4.712;2023-12-20T10:07:53;26.38;;;7.10;;
46551;SDS011;32278;51.810;4.712;2023-12-20T10:10:19;38.75;;;8.10;;
46551;SDS011;32278;51.810;4.712;2023-12-20T10:15:46;32.38;;;7.90;;
46551;SDS011;32278;51.810;4.712;2023-12-20T10:18:12;33.38;;;8.18;;
46551;SDS011;32278;51.810;4.712;2023-12-20T10:20:39;35.33;;;7.28;;
46551;SDS011;32278;51.810;4.712;2023-12-20T10:23:05;33.00;;;7.25;;
46551;SDS011;32278;51.810;4.712;2023-12-20T10:25:31;30.38;;;7.63;;
46551;SDS011;32278;51.810;4.712;2023-12-20T10:30:36;26.58;;;6.80;;
46551;SDS011;32278;51.810;4.712;2023-12-20T10:33:02;28.08;;;6.53;;
46551;SDS011;32278;51.810;4.712;2023-12-20T10:35:28;28.63;;;6.80;;
46551;SDS011;32278;51.810;4.712;2023-12-20T10:37:55;35.38;;;7.45;;
46551;SDS011;32278;51.810;4.712;2023-12-20T10:40:21;36.35;;;6.88;;
46551;SDS011;32278;51.810;4.712;2023-12-20T10:42:47;27.55;;;7.43;;
46551;SDS011;32278;51.810;4.712;2023-12-20T10:45:13;26.83;;;6.15;;
46551;SDS011;32278;51.810;4.712;2023-12-20T10:47:41;29.33;;;6.82;;
46551;SDS011;32278;51.810;4.712;2023-12-20T10:50:08;31.35;;;7.28;;
46551;SDS011;32278;51.810;4.712;2023-12-20T10:52:34;32.10;;;7.07;;
46551;SDS011;32278;51.810;4.712;2023-12-20T10:55:01;28.70;;;7.43;;
46551;SDS011;32278;51.810;4.712;2023-12-20T10:57:27;26.13;;;6.78;;
46551;SDS011;32278;51.810;4.712;2023-12-20T10:59:53;29.35;;;8.60;;
46551;SDS011;32278;51.810;4.712;2023-12-20T11:02:20;34.95;;;8.45;;
46551;SDS011;32278;51.810;4.712;2023-12-20T11:04:50;36.03;;;8.70;;
46551;SDS011;32278;51.810;4.712;2023-12-20T11:07:21;31.35;;;8.43;;
46551;SDS011;32278;51.810;4.712;2023-12-20T11:09:49;40.58;;;7.70;;
46551;SDS011;32278;51.810;4.712;2023-12-20T11:12:22;37.50;;;7.55;;
46551;SDS011;32278;51.810;4.712;2023-12-20T11:14:51;32.55;;;7.75;;
46551;SDS011;32278;51.810;4.712;2023-12-20T11:17:17;35.95;;;8.52;;
46551;SDS011;32278;51.810;4.712;2023-12-20T11:20:03;39.60;;;7.80;;
46551;SDS011;32278;51.810;4.712;2023-12-20T11:22:30;39.33;;;7.72;;
46551;SDS011;32278;51.810;4.712;2023-12-20T11:25:03;24.40;;;6.57;;
46551;SDS011;32278;51.810;4.712;2023-12-20T11:27:30;31.55;;;6.13;;
46551;SDS011;32278;51.810;4.712;2023-12-20T11:29:57;37.42;;;7.43;;
46551;SDS011;32278;51.810;4.712;2023-12-20T11:37:22;35.67;;;7.93;;
46551;SDS011;32278;51.810;4.712;2023-12-20T11:40:00;29.08;;;8.52;;
46551;SDS011;32278;51.810;4.712;2023-12-20T11:42:27;36.22;;;7.50;;
46551;SDS011;32278;51.810;4.712;2023-12-20T11:44:53;24.25;;;6.68;;
46551;SDS011;32278;51.810;4.712;2023-12-20T11:47:19;30.13;;;6.88;;
46551;SDS011;32278;51.810;4.712;2023-12-20T11:49:48;31.63;;;6.70;;
46551;SDS011;32278;51.810;4.712;2023-12-20T11:52:14;30.80;;;7.20;;
46551;SDS011;32278;51.810;4.712;2023-12-20T11:54:40;28.52;;;6.82;;
46551;SDS011;32278;51.810;4.712;2023-12-20T11:57:06;37.35;;;6.63;;
46551;SDS011;32278;51.810;4.712;2023-12-20T11:59:32;28.30;;;5.47;;
46551;SDS011;32278;51.810;4.712;2023-12-20T12:01:58;24.48;;;6.50;;
46551;SDS011;32278;51.810;4.712;2023-12-20T12:04:26;22.60;;;6.40;;
46551;SDS011;32278;51.810;4.712;2023-12-20T12:06:52;23.88;;;6.63;;
46551;SDS011;32278;51.810;4.712;2023-12-20T12:09:19;23.67;;;6.15;;
46551;SDS011;32278;51.810;4.712;2023-12-20T12:11:45;32.90;;;7.40;;
46551;SDS011;32278;51.810;4.712;2023-12-20T12:14:10;27.90;;;6.50;;
46551;SDS011;32278;51.810;4.712;2023-12-20T12:16:37;34.03;;;8.13;;
46551;SDS011;32278;51.810;4.712;2023-12-20T12:19:03;22.45;;;6.50;;
46551;SDS011;32278;51.810;4.712;2023-12-20T12:21:29;27.67;;;5.53;;
46551;SDS011;32278;51.810;4.712;2023-12-20T12:24:05;20.83;;;6.18;;
46551;SDS011;32278;51.810;4.712;2023-12-20T12:26:31;30.48;;;6.97;;
46551;SDS011;32278;51.810;4.712;2023-12-20T12:28:57;30.10;;;6.63;;
46551;SDS011;32278;51.810;4.712;2023-12-20T12:31:23;32.47;;;7.05;;
46551;SDS011;32278;51.810;4.712;2023-12-20T12:33:51;24.52;;;6.97;;
46551;SDS011;32278;51.810;4.712;2023-12-20T12:36:17;27.17;;;6.88;;
46551;SDS011;32278;51.810;4.712;2023-12-20T12:38:43;28.83;;;6.70;;
46551;SDS011;32278;51.810;4.712;2023-12-20T12:41:09;29.95;;;6.90;;
46551;SDS011;32278;51.810;4.712;2023-12-20T12:43:35;34.85;;;7.28;;
46551;SDS011;32278;51.810;4.712;2023-12-20T12:46:01;26.83;;;7.30;;
46551;SDS011;32278;51.810;4.712;2023-12-20T12:48:27;32.05;;;8.63;;
46551;SDS011;32278;51.810;4.712;2023-12-20T12:50:53;29.75;;;7.70;;
46551;SDS011;32278;51.810;4.712;2023-12-20T12:53:23;29.77;;;7.40;;
46551;SDS011;32278;51.810;4.712;2023-12-20T12:55:49;33.40;;;6.95;;
46551;SDS011;32278;51.810;4.712;2023-12-20T12:58:15;22.58;;;6.93;;
46551;SDS011;32278;51.810;4.712;2023-12-20T13:00:41;24.75;;;7.30;;
46551;SDS011;32278;51.810;4.712;2023-12-20T13:03:07;25.73;;;7.15;;
46551;SDS011;32278;51.810;4.712;2023-12-20T13:05:33;33.03;;;8.18;;
46551;SDS011;32278;51.810;4.712;2023-12-20T13:08:00;22.70;;;6.80;;
46551;SDS011;32278;51.810;4.712;2023-12-20T13:10:26;22.52;;;7.45;;
46551;SDS011;32278;51.810;4.712;2023-12-20T13:12:52;23.45;;;6.25;;
46551;SDS011;32278;51.810;4.712;2023-12-20T13:15:18;34.90;;;7.28;;
46551;SDS011;32278;51.810;4.712;2023-12-20T13:17:44;28.45;;;7.78;;
46551;SDS011;32278;51.810;4.712;2023-12-20T13:20:11;21.50;;;6.85;;
46551;SDS011;32278;51.810;4.712;2023-12-20T13:22:37;28.40;;;7.07;;
46551;SDS011;32278;51.810;4.712;2023-12-20T13:25:03;30.08;;;8.40;;
46551;SDS011;32278;51.810;4.712;2023-12-20T13:27:29;31.45;;;8.10;;
46551;SDS011;32278;51.810;4.712;2023-12-20T13:29:55;33.63;;;8.07;;
46551;SDS011;32278;51.810;4.712;2023-12-20T13:32:21;24.42;;;7.07;;
46551;SDS011;32278;51.810;4.712;2023-12-20T13:34:47;28.73;;;8.10;;
46551;SDS011;32278;51.810;4.712;2023-12-20T13:37:13;36.30;;;8.38;;
46551;SDS011;32278;51.810;4.712;2023-12-20T13:39:39;33.78;;;8.30;;
46551;SDS011;32278;51.810;4.712;2023-12-20T13:42:06;35.83;;;7.30;;
46551;SDS011;32278;51.810;4.712;2023-12-20T13:44:32;27.67;;;7.90;;
46551;SDS011;32278;51.810;4.712;2023-12-20T13:46:59;24.90;;;6.85;;
46551;SDS011;32278;51.810;4.712;2023-12-20T13:49:26;33.35;;;6.78;;
46551;SDS011;32278;51.810;4.712;2023-12-20T13:51:53;30.70;;;9.95;;
46551;SDS011;32278;51.810;4.712;2023-12-20T13:54:19;24.75;;;5.88;;
46551;SDS011;32278;51.810;4.712;2023-12-20T13:56:47;27.17;;;6.15;;
46551;SDS011;32278;51.810;4.712;2023-12-20T13:59:13;29.92;;;7.78;;
46551;SDS011;32278;51.810;4.712;2023-12-20T14:01:40;25.50;;;6.32;;
46551;SDS011;32278;51.810;4.712;2023-12-20T14:04:06;27.30;;;7.28;;
46551;SDS011;32278;51.810;4.712;2023-12-20T14:06:32;22.83;;;7.43;;
46551;SDS011;32278;51.810;4.712;2023-12-20T14:08:58;24.17;;;7.90;;
46551;SDS011;32278;51.810;4.712;2023-12-20T14:11:28;21.38;;;6.45;;
46551;SDS011;32278;51.810;4.712;2023-12-20T14:13:54;30.55;;;7.57;;
46551;SDS011;32278;51.810;4.712;2023-12-20T14:16:24;27.38;;;6.38;;
46551;SDS011;32278;51.810;4.712;2023-12-20T14:18:50;25.45;;;6.57;;
46551;SDS011;32278;51.810;4.712;2023-12-20T14:21:22;29.60;;;6.85;;
46551;SDS011;32278;51.810;4.712;2023-12-20T14:23:48;34.25;;;6.95;;
46551;SDS011;32278;51.810;4.712;2023-12-20T14:26:14;35.78;;;8.38;;
46551;SDS011;32278;51.810;4.712;2023-12-20T14:28:41;22.48;;;7.13;;
46551;SDS011;32278;51.810;4.712;2023-12-20T14:31:07;30.55;;;7.75;;
46551;SDS011;32278;51.810;4.712;2023-12-20T14:33:35;25.63;;;7.68;;
46551;SDS011;32278;51.810;4.712;2023-12-20T14:36:02;29.80;;;7.75;;
46551;SDS011;32278;51.810;4.712;2023-12-20T14:38:30;27.00;;;8.20;;